sensor_id;sensor_type;location;lat;lon;timestamp;P1;durP1;ratioP1;P2;durP2;ratioP2
20896;SDS011;10608;42.600;23.398;2023-04-25T00:00:09;32.97;;;31.60;;
20896;SDS011;10608;42.600;23.398;2023-04-25T00:02:35;35.37;;;33.87;;
20896;SDS011;10608;42.600;23.398;2023-04-25T00:05:01;36.60;;;35.07;;
20896;SDS011;10608;42.600;23.398;2023-04-25T00:07:29;31.43;;;30.13;;
20896;SDS011;10608;42.600;23.398;2023-04-25T00:09:56;46.23;;;44.30;;
20896;SDS011;10608;42.600;23.398;2023-04-25T00:12:21;45.73;;;43.83;;
20896;SDS011;10608;42.600;23.398;2023-04-25T00:14:47;41.30;;;39.57;;
20896;SDS011;10608;42.600;23.398;2023-04-25T00:17:14;56.47;;;54.10;;
20896;SDS011;10608;42.600;23.398;2023-04-25T00:19:40;49.43;;;47.37;;
20896;SDS011;10608;42.600;23.398;2023-04-25T00:22:05;60.83;;;58.30;;
20896;SDS011;10608;42.600;23.398;2023-04-25T00:24:30;73.00;;;69.93;;
20896;SDS011;10608;42.600;23.398;2023-04-25T00:26:56;92.87;;;88.80;;
20896;SDS011;10608;42.600;23.398;2023-04-25T00:29:21;73.63;;;70.50;;
20896;SDS011;10608;42.600;23.398;2023-04-25T00:31:46;56.60;;;54.20;;
20896;SDS011;10608;42.600;23.398;2023-04-25T00:34:11;60.57;;;58.00;;
20896;SDS011;10608;42.600;23.398;2023-04-25T00:36:36;55.90;;;53.50;;
20896;SDS011;10608;42.600;23.398;2023-04-25T00:39:03;55.40;;;52.93;;
20896;SDS011;10608;42.600;23.398;2023-04-25T00:41:29;60.70;;;58.03;;
20896;SDS011;10608;42.600;23.398;2023-04-25T00:43:55;78.77;;;75.30;;
20896;SDS011;10608;42.600;23.398;2023-04-25T00:46:21;73.20;;;69.93;;
20896;SDS011;10608;42.600;23.398;2023-04-25T00:48:46;88.60;;;84.80;;
20896;SDS011;10608;42.600;23.398;2023-04-25T00:51:13;85.73;;;82.07;;
20896;SDS011;10608;42.600;23.398;2023-04-25T00:53:40;77.47;;;74.13;;
20896;SDS011;10608;42.600;23.398;2023-04-25T00:56:05;73.63;;;70.47;;
20896;SDS011;10608;42.600;23.398;2023-04-25T00:58:30;88.23;;;84.43;;
20896;SDS011;10608;42.600;23.398;2023-04-25T01:00:56;86.77;;;83.03;;
20896;SDS011;10608;42.600;23.398;2023-04-25T01:03:22;86.03;;;82.30;;
20896;SDS011;10608;42.600;23.398;2023-04-25T01:05:47;81.67;;;78.10;;
20896;SDS011;10608;42.600;23.398;2023-04-25T01:08:13;79.40;;;75.93;;
20896;SDS011;10608;42.600;23.398;2023-04-25T01:10:39;75.80;;;72.40;;
20896;SDS011;10608;42.600;23.398;2023-04-25T01:13:04;75.30;;;71.93;;
20896;SDS011;10608;42.600;23.398;2023-04-25T01:15:29;78.63;;;75.17;;
20896;SDS011;10608;42.600;23.398;2023-04-25T01:17:55;87.40;;;83.57;;
20896;SDS011;10608;42.600;23.398;2023-04-25T01:20:20;72.70;;;69.23;;
20896;SDS011;10608;42.600;23.398;2023-04-25T01:22:47;57.93;;;55.50;;
20896;SDS011;10608;42.600;23.398;2023-04-25T01:25:12;57.53;;;55.13;;
20896;SDS011;10608;42.600;23.398;2023-04-25T01:27:37;56.33;;;53.93;;
20896;SDS011;10608;42.600;23.398;2023-04-25T01:30:03;48.77;;;46.70;;
20896;SDS011;10608;42.600;23.398;2023-04-25T01:32:29;49.50;;;47.40;;
20896;SDS011;10608;42.600;23.398;2023-04-25T01:34:56;55.83;;;53.43;;
20896;SDS011;10608;42.600;23.398;2023-04-25T01:37:22;53.97;;;51.60;;
20896;SDS011;10608;42.600;23.398;2023-04-25T01:39:47;49.80;;;47.60;;
20896;SDS011;10608;42.600;23.398;2023-04-25T01:42:13;43.70;;;41.77;;
20896;SDS011;10608;42.600;23.398;2023-04-25T01:44:39;53.67;;;51.30;;
20896;SDS011;10608;42.600;23.398;2023-04-25T01:47:04;49.83;;;47.73;;
20896;SDS011;10608;42.600;23.398;2023-04-25T01:49:29;54.33;;;51.90;;
20896;SDS011;10608;42.600;23.398;2023-04-25T01:51:55;56.23;;;53.77;;
20896;SDS011;10608;42.600;23.398;2023-04-25T01:54:20;54.57;;;52.17;;
20896;SDS011;10608;42.600;23.398;2023-04-25T01:56:49;55.37;;;53.03;;
20896;SDS011;10608;42.600;23.398;2023-04-25T01:59:15;57.97;;;55.50;;
20896;SDS011;10608;42.600;23.398;2023-04-25T02:01:40;62.83;;;59.97;;
20896;SDS011;10608;42.600;23.398;2023-04-25T02:04:05;66.73;;;63.93;;
20896;SDS011;10608;42.600;23.398;2023-04-25T02:06:30;61.90;;;59.30;;
20896;SDS011;10608;42.600;23.398;2023-04-25T02:08:56;60.17;;;57.57;;
20896;SDS011;10608;42.600;23.398;2023-04-25T02:11:21;60.20;;;57.60;;
20896;SDS011;10608;42.600;23.398;2023-04-25T02:13:46;50.07;;;47.97;;
20896;SDS011;10608;42.600;23.398;2023-04-25T02:16:11;46.37;;;44.43;;
20896;SDS011;10608;42.600;23.398;2023-04-25T02:18:38;44.07;;;42.23;;
20896;SDS011;10608;42.600;23.398;2023-04-25T02:21:04;46.80;;;44.80;;
20896;SDS011;10608;42.600;23.398;2023-04-25T02:23:29;47.93;;;45.67;;
20896;SDS011;10608;42.600;23.398;2023-04-25T02:25:55;47.60;;;45.53;;
20896;SDS011;10608;42.600;23.398;2023-04-25T02:28:22;49.03;;;46.97;;
20896;SDS011;10608;42.600;23.398;2023-04-25T02:30:48;58.97;;;56.40;;
20896;SDS011;10608;42.600;23.398;2023-04-25T02:33:13;45.27;;;43.37;;
20896;SDS011;10608;42.600;23.398;2023-04-25T02:35:38;49.77;;;47.67;;
20896;SDS011;10608;42.600;23.398;2023-04-25T02:38:03;48.13;;;46.03;;
20896;SDS011;10608;42.600;23.398;2023-04-25T02:40:29;43.97;;;41.87;;
20896;SDS011;10608;42.600;23.398;2023-04-25T02:42:54;36.50;;;34.90;;
20896;SDS011;10608;42.600;23.398;2023-04-25T02:45:20;32.20;;;30.90;;
20896;SDS011;10608;42.600;23.398;2023-04-25T02:47:45;34.60;;;33.20;;
20896;SDS011;10608;42.600;23.398;2023-04-25T02:50:10;36.70;;;35.20;;
20896;SDS011;10608;42.600;23.398;2023-04-25T02:52:36;34.73;;;33.23;;
20896;SDS011;10608;42.600;23.398;2023-04-25T02:55:01;43.27;;;41.40;;
20896;SDS011;10608;42.600;23.398;2023-04-25T02:57:26;38.30;;;36.70;;
20896;SDS011;10608;42.600;23.398;2023-04-25T02:59:52;41.90;;;40.07;;
20896;SDS011;10608;42.600;23.398;2023-04-25T03:02:17;40.63;;;38.93;;
20896;SDS011;10608;42.600;23.398;2023-04-25T03:04:42;40.13;;;38.43;;
20896;SDS011;10608;42.600;23.398;2023-04-25T03:07:07;44.90;;;43.00;;
20896;SDS011;10608;42.600;23.398;2023-04-25T03:09:32;35.30;;;33.83;;
20896;SDS011;10608;42.600;23.398;2023-04-25T03:11:58;43.67;;;41.77;;
20896;SDS011;10608;42.600;23.398;2023-04-25T03:14:23;44.10;;;42.27;;
20896;SDS011;10608;42.600;23.398;2023-04-25T03:16:48;36.63;;;35.07;;
20896;SDS011;10608;42.600;23.398;2023-04-25T03:19:13;42.50;;;40.60;;
20896;SDS011;10608;42.600;23.398;2023-04-25T03:21:41;47.20;;;45.23;;
20896;SDS011;10608;42.600;23.398;2023-04-25T03:24:06;48.43;;;46.43;;
20896;SDS011;10608;42.600;23.398;2023-04-25T03:26:31;51.13;;;49.00;;
20896;SDS011;10608;42.600;23.398;2023-04-25T03:28:56;54.53;;;52.23;;
20896;SDS011;10608;42.600;23.398;2023-04-25T03:31:21;57.33;;;54.90;;
20896;SDS011;10608;42.600;23.398;2023-04-25T03:33:47;55.97;;;53.60;;
20896;SDS011;10608;42.600;23.398;2023-04-25T03:36:12;49.03;;;47.03;;
20896;SDS011;10608;42.600;23.398;2023-04-25T03:38:37;42.13;;;40.33;;
20896;SDS011;10608;42.600;23.398;2023-04-25T03:41:03;40.57;;;38.80;;
20896;SDS011;10608;42.600;23.398;2023-04-25T03:43:28;42.50;;;40.70;;
20896;SDS011;10608;42.600;23.398;2023-04-25T03:45:53;46.80;;;44.80;;
20896;SDS011;10608;42.600;23.398;2023-04-25T03:48:19;45.50;;;43.53;;
20896;SDS011;10608;42.600;23.398;2023-04-25T03:50:46;54.23;;;51.93;;
20896;SDS011;10608;42.600;23.398;2023-04-25T03:53:12;53.13;;;50.87;;
20896;SDS011;10608;42.600;23.398;2023-04-25T03:55:37;57.60;;;55.17;;
20896;SDS011;10608;42.600;23.398;2023-04-25T03:58:02;66.33;;;63.47;;
20896;SDS011;10608;42.600;23.398;2023-04-25T04:00:27;68.30;;;65.27;;
20896;SDS011;10608;42.600;23.398;2023-04-25T04:02:52;73.57;;;70.40;;
20896;SDS011;10608;42.600;23.398;2023-04-25T04:05:18;124.90;;;119.23;;
20896;SDS011;10608;42.600;23.398;2023-04-25T04:07:43;177.20;;;168.43;;
20896;SDS011;10608;42.600;23.398;2023-04-25T04:10:09;158.97;;;152.13;;
20896;SDS011;10608;42.600;23.398;2023-04-25T04:12:35;161.97;;;154.73;;
20896;SDS011;10608;42.600;23.398;2023-04-25T04:15:01;155.20;;;148.40;;
20896;SDS011;10608;42.600;23.398;2023-04-25T04:17:26;101.43;;;97.03;;
20896;SDS011;10608;42.600;23.398;2023-04-25T04:19:51;74.13;;;70.87;;
20896;SDS011;10608;42.600;23.398;2023-04-25T04:22:16;116.90;;;111.57;;
20896;SDS011;10608;42.600;23.398;2023-04-25T04:24:42;73.37;;;70.23;;
20896;SDS011;10608;42.600;23.398;2023-04-25T04:27:11;82.17;;;78.70;;
20896;SDS011;10608;42.600;23.398;2023-04-25T04:29:37;116.90;;;111.67;;
20896;SDS011;10608;42.600;23.398;2023-04-25T04:32:02;137.63;;;131.47;;
20896;SDS011;10608;42.600;23.398;2023-04-25T04:34:28;128.30;;;122.70;;
20896;SDS011;10608;42.600;23.398;2023-04-25T04:36:53;83.47;;;79.33;;
20896;SDS011;10608;42.600;23.398;2023-04-25T04:39:19;116.63;;;111.33;;
20896;SDS011;10608;42.600;23.398;2023-04-25T04:41:45;66.50;;;63.60;;
20896;SDS011;10608;42.600;23.398;2023-04-25T04:44:10;62.00;;;59.40;;
20896;SDS011;10608;42.600;23.398;2023-04-25T04:46:35;64.87;;;62.00;;
20896;SDS011;10608;42.600;23.398;2023-04-25T04:49:06;43.60;;;41.77;;
20896;SDS011;10608;42.600;23.398;2023-04-25T04:51:32;47.00;;;44.90;;
20896;SDS011;10608;42.600;23.398;2023-04-25T04:53:58;53.27;;;50.97;;
20896;SDS011;10608;42.600;23.398;2023-04-25T04:56:26;60.83;;;58.23;;
20896;SDS011;10608;42.600;23.398;2023-04-25T04:58:51;68.23;;;65.20;;
20896;SDS011;10608;42.600;23.398;2023-04-25T05:01:17;72.53;;;69.33;;
20896;SDS011;10608;42.600;23.398;2023-04-25T05:03:43;75.27;;;71.93;;
20896;SDS011;10608;42.600;23.398;2023-04-25T05:06:08;79.80;;;76.27;;
20896;SDS011;10608;42.600;23.398;2023-04-25T05:08:34;74.13;;;70.87;;
20896;SDS011;10608;42.600;23.398;2023-04-25T05:10:59;75.00;;;71.77;;
20896;SDS011;10608;42.600;23.398;2023-04-25T05:13:24;66.63;;;63.83;;
20896;SDS011;10608;42.600;23.398;2023-04-25T05:15:50;58.23;;;55.63;;
20896;SDS011;10608;42.600;23.398;2023-04-25T05:18:15;57.43;;;54.83;;
20896;SDS011;10608;42.600;23.398;2023-04-25T05:20:40;57.93;;;55.50;;
20896;SDS011;10608;42.600;23.398;2023-04-25T05:23:05;45.40;;;43.40;;
20896;SDS011;10608;42.600;23.398;2023-04-25T05:25:31;39.60;;;37.87;;
20896;SDS011;10608;42.600;23.398;2023-04-25T05:27:56;36.10;;;34.60;;
20896;SDS011;10608;42.600;23.398;2023-04-25T05:30:22;39.63;;;37.83;;
20896;SDS011;10608;42.600;23.398;2023-04-25T05:32:47;43.40;;;41.40;;
20896;SDS011;10608;42.600;23.398;2023-04-25T05:35:13;46.97;;;44.97;;
20896;SDS011;10608;42.600;23.398;2023-04-25T05:37:38;40.13;;;38.40;;
20896;SDS011;10608;42.600;23.398;2023-04-25T05:40:03;39.43;;;37.77;;
20896;SDS011;10608;42.600;23.398;2023-04-25T05:42:31;38.30;;;36.40;;
20896;SDS011;10608;42.600;23.398;2023-04-25T05:44:57;33.80;;;32.33;;
20896;SDS011;10608;42.600;23.398;2023-04-25T05:47:22;46.17;;;44.13;;
20896;SDS011;10608;42.600;23.398;2023-04-25T05:49:47;30.37;;;29.00;;
20896;SDS011;10608;42.600;23.398;2023-04-25T05:52:13;36.27;;;34.73;;
20896;SDS011;10608;42.600;23.398;2023-04-25T05:54:38;35.97;;;34.47;;
20896;SDS011;10608;42.600;23.398;2023-04-25T05:57:03;44.57;;;42.53;;
20896;SDS011;10608;42.600;23.398;2023-04-25T05:59:28;35.43;;;33.87;;
20896;SDS011;10608;42.600;23.398;2023-04-25T06:01:54;42.03;;;39.97;;
20896;SDS011;10608;42.600;23.398;2023-04-25T06:04:19;42.87;;;40.87;;
20896;SDS011;10608;42.600;23.398;2023-04-25T06:06:45;35.33;;;33.80;;
20896;SDS011;10608;42.600;23.398;2023-04-25T06:09:10;46.50;;;44.47;;
20896;SDS011;10608;42.600;23.398;2023-04-25T06:11:35;28.47;;;27.23;;
20896;SDS011;10608;42.600;23.398;2023-04-25T06:14:00;32.83;;;31.33;;
20896;SDS011;10608;42.600;23.398;2023-04-25T06:16:26;37.07;;;35.33;;
20896;SDS011;10608;42.600;23.398;2023-04-25T06:18:51;44.27;;;42.27;;
20896;SDS011;10608;42.600;23.398;2023-04-25T06:21:16;56.93;;;54.30;;
20896;SDS011;10608;42.600;23.398;2023-04-25T06:23:42;73.13;;;69.83;;
20896;SDS011;10608;42.600;23.398;2023-04-25T06:26:07;98.27;;;93.40;;
20896;SDS011;10608;42.600;23.398;2023-04-25T06:28:32;86.10;;;81.77;;
20896;SDS011;10608;42.600;23.398;2023-04-25T06:30:57;70.40;;;67.07;;
20896;SDS011;10608;42.600;23.398;2023-04-25T06:33:23;77.87;;;74.30;;
20896;SDS011;10608;42.600;23.398;2023-04-25T06:35:49;89.20;;;85.20;;
20896;SDS011;10608;42.600;23.398;2023-04-25T06:38:15;130.70;;;124.80;;
20896;SDS011;10608;42.600;23.398;2023-04-25T06:40:40;116.70;;;111.47;;
20896;SDS011;10608;42.600;23.398;2023-04-25T06:43:05;135.60;;;129.47;;
20896;SDS011;10608;42.600;23.398;2023-04-25T06:45:30;166.77;;;159.23;;
20896;SDS011;10608;42.600;23.398;2023-04-25T06:47:56;169.53;;;161.80;;
20896;SDS011;10608;42.600;23.398;2023-04-25T06:50:21;132.60;;;126.67;;
20896;SDS011;10608;42.600;23.398;2023-04-25T06:52:46;121.53;;;116.00;;
20896;SDS011;10608;42.600;23.398;2023-04-25T06:55:11;96.17;;;91.97;;
20896;SDS011;10608;42.600;23.398;2023-04-25T06:57:37;80.57;;;76.97;;
20896;SDS011;10608;42.600;23.398;2023-04-25T07:00:02;66.73;;;63.83;;
20896;SDS011;10608;42.600;23.398;2023-04-25T07:02:30;75.30;;;72.00;;
20896;SDS011;10608;42.600;23.398;2023-04-25T07:04:55;70.37;;;67.30;;
20896;SDS011;10608;42.600;23.398;2023-04-25T07:07:24;87.83;;;83.90;;
20896;SDS011;10608;42.600;23.398;2023-04-25T07:09:49;78.23;;;74.67;;
20896;SDS011;10608;42.600;23.398;2023-04-25T07:12:15;64.67;;;61.93;;
20896;SDS011;10608;42.600;23.398;2023-04-25T07:14:40;55.07;;;52.67;;
20896;SDS011;10608;42.600;23.398;2023-04-25T07:17:05;72.10;;;69.00;;
20896;SDS011;10608;42.600;23.398;2023-04-25T07:19:31;94.53;;;90.30;;
20896;SDS011;10608;42.600;23.398;2023-04-25T07:21:57;83.93;;;80.13;;
20896;SDS011;10608;42.600;23.398;2023-04-25T07:24:23;65.73;;;62.73;;
20896;SDS011;10608;42.600;23.398;2023-04-25T07:26:48;62.93;;;60.00;;
20896;SDS011;10608;42.600;23.398;2023-04-25T07:29:13;62.20;;;59.37;;
20896;SDS011;10608;42.600;23.398;2023-04-25T07:31:38;96.40;;;92.23;;
20896;SDS011;10608;42.600;23.398;2023-04-25T07:34:04;64.93;;;62.13;;
20896;SDS011;10608;42.600;23.398;2023-04-25T07:36:30;71.77;;;68.60;;
20896;SDS011;10608;42.600;23.398;2023-04-25T07:38:55;47.17;;;45.07;;
20896;SDS011;10608;42.600;23.398;2023-04-25T07:41:21;39.67;;;37.90;;
20896;SDS011;10608;42.600;23.398;2023-04-25T07:43:46;32.93;;;31.53;;
20896;SDS011;10608;42.600;23.398;2023-04-25T07:46:11;45.57;;;43.60;;
20896;SDS011;10608;42.600;23.398;2023-04-25T07:48:36;19.53;;;18.70;;
20896;SDS011;10608;42.600;23.398;2023-04-25T07:51:02;29.70;;;28.50;;
20896;SDS011;10608;42.600;23.398;2023-04-25T07:53:29;35.40;;;33.77;;
20896;SDS011;10608;42.600;23.398;2023-04-25T07:55:54;41.73;;;39.93;;
20896;SDS011;10608;42.600;23.398;2023-04-25T07:58:20;94.23;;;90.27;;
20896;SDS011;10608;42.600;23.398;2023-04-25T08:00:47;18.20;;;17.43;;
20896;SDS011;10608;42.600;23.398;2023-04-25T08:03:12;32.63;;;31.30;;
20896;SDS011;10608;42.600;23.398;2023-04-25T08:05:37;22.53;;;21.63;;
20896;SDS011;10608;42.600;23.398;2023-04-25T08:08:03;65.80;;;63.10;;
20896;SDS011;10608;42.600;23.398;2023-04-25T08:10:29;50.30;;;48.23;;
20896;SDS011;10608;42.600;23.398;2023-04-25T08:12:54;40.13;;;38.43;;
20896;SDS011;10608;42.600;23.398;2023-04-25T08:15:20;26.57;;;25.47;;
20896;SDS011;10608;42.600;23.398;2023-04-25T08:17:45;23.00;;;22.07;;
20896;SDS011;10608;42.600;23.398;2023-04-25T08:20:10;26.67;;;25.50;;
20896;SDS011;10608;42.600;23.398;2023-04-25T08:22:36;25.53;;;24.53;;
20896;SDS011;10608;42.600;23.398;2023-04-25T08:25:01;35.97;;;34.43;;
20896;SDS011;10608;42.600;23.398;2023-04-25T08:27:26;44.53;;;42.73;;
20896;SDS011;10608;42.600;23.398;2023-04-25T08:29:52;23.60;;;22.63;;
20896;SDS011;10608;42.600;23.398;2023-04-25T08:32:18;32.27;;;30.93;;
20896;SDS011;10608;42.600;23.398;2023-04-25T08:34:43;63.50;;;60.90;;
20896;SDS011;10608;42.600;23.398;2023-04-25T08:37:09;74.93;;;71.83;;
20896;SDS011;10608;42.600;23.398;2023-04-25T08:39:35;31.10;;;29.80;;
20896;SDS011;10608;42.600;23.398;2023-04-25T08:42:00;19.10;;;18.30;;
20896;SDS011;10608;42.600;23.398;2023-04-25T08:44:28;26.73;;;25.60;;
20896;SDS011;10608;42.600;23.398;2023-04-25T08:46:55;16.97;;;16.27;;
20896;SDS011;10608;42.600;23.398;2023-04-25T08:49:20;19.60;;;18.83;;
20896;SDS011;10608;42.600;23.398;2023-04-25T08:51:46;19.27;;;18.47;;
20896;SDS011;10608;42.600;23.398;2023-04-25T08:54:13;18.67;;;17.93;;
20896;SDS011;10608;42.600;23.398;2023-04-25T08:56:38;34.30;;;32.87;;
20896;SDS011;10608;42.600;23.398;2023-04-25T08:59:03;19.50;;;18.70;;
20896;SDS011;10608;42.600;23.398;2023-04-25T09:01:29;15.97;;;15.30;;
20896;SDS011;10608;42.600;23.398;2023-04-25T09:03:55;26.30;;;25.23;;
20896;SDS011;10608;42.600;23.398;2023-04-25T09:06:20;44.93;;;43.03;;
20896;SDS011;10608;42.600;23.398;2023-04-25T09:08:46;30.93;;;29.60;;
20896;SDS011;10608;42.600;23.398;2023-04-25T09:11:12;45.87;;;44.00;;
20896;SDS011;10608;42.600;23.398;2023-04-25T09:13:37;46.17;;;44.23;;
20896;SDS011;10608;42.600;23.398;2023-04-25T09:16:02;38.87;;;37.27;;
20896;SDS011;10608;42.600;23.398;2023-04-25T09:18:29;36.03;;;34.47;;
20896;SDS011;10608;42.600;23.398;2023-04-25T09:20:55;96.93;;;92.53;;
20896;SDS011;10608;42.600;23.398;2023-04-25T09:23:21;26.17;;;25.10;;
20896;SDS011;10608;42.600;23.398;2023-04-25T09:25:47;29.20;;;28.00;;
20896;SDS011;10608;42.600;23.398;2023-04-25T09:28:12;19.27;;;18.27;;
20896;SDS011;10608;42.600;23.398;2023-04-25T09:30:38;44.37;;;42.50;;
20896;SDS011;10608;42.600;23.398;2023-04-25T09:33:04;42.33;;;40.60;;
20896;SDS011;10608;42.600;23.398;2023-04-25T09:35:30;16.40;;;15.70;;
20896;SDS011;10608;42.600;23.398;2023-04-25T09:37:59;149.60;;;143.77;;
20896;SDS011;10608;42.600;23.398;2023-04-25T09:40:25;36.47;;;34.97;;
20896;SDS011;10608;42.600;23.398;2023-04-25T09:42:50;39.67;;;38.00;;
20896;SDS011;10608;42.600;23.398;2023-04-25T09:45:16;92.97;;;89.27;;
20896;SDS011;10608;42.600;23.398;2023-04-25T09:47:41;64.93;;;62.27;;
20896;SDS011;10608;42.600;23.398;2023-04-25T09:50:15;48.33;;;46.37;;
20896;SDS011;10608;42.600;23.398;2023-04-25T09:52:40;138.50;;;133.00;;
20896;SDS011;10608;42.600;23.398;2023-04-25T09:55:06;56.30;;;54.00;;
20896;SDS011;10608;42.600;23.398;2023-04-25T09:57:31;52.63;;;50.43;;
20896;SDS011;10608;42.600;23.398;2023-04-25T09:59:56;48.30;;;46.33;;
20896;SDS011;10608;42.600;23.398;2023-04-25T10:02:24;78.43;;;75.27;;
20896;SDS011;10608;42.600;23.398;2023-04-25T10:04:53;39.97;;;38.37;;
20896;SDS011;10608;42.600;23.398;2023-04-25T10:07:23;16.97;;;16.27;;
20896;SDS011;10608;42.600;23.398;2023-04-25T10:09:52;25.03;;;24.03;;
20896;SDS011;10608;42.600;23.398;2023-04-25T10:12:20;30.40;;;29.20;;
20896;SDS011;10608;42.600;23.398;2023-04-25T10:14:45;33.90;;;32.50;;
20896;SDS011;10608;42.600;23.398;2023-04-25T10:17:11;29.17;;;27.97;;
20896;SDS011;10608;42.600;23.398;2023-04-25T10:19:37;52.30;;;50.13;;
20896;SDS011;10608;42.600;23.398;2023-04-25T10:22:11;47.23;;;45.27;;
20896;SDS011;10608;42.600;23.398;2023-04-25T10:24:38;68.40;;;65.63;;
20896;SDS011;10608;42.600;23.398;2023-04-25T10:27:04;38.23;;;36.67;;
20896;SDS011;10608;42.600;23.398;2023-04-25T10:29:29;25.27;;;24.27;;
20896;SDS011;10608;42.600;23.398;2023-04-25T10:31:54;132.70;;;127.50;;
20896;SDS011;10608;42.600;23.398;2023-04-25T10:34:23;45.27;;;43.40;;
20896;SDS011;10608;42.600;23.398;2023-04-25T10:36:49;120.70;;;115.80;;
20896;SDS011;10608;42.600;23.398;2023-04-25T10:39:21;123.53;;;118.60;;
20896;SDS011;10608;42.600;23.398;2023-04-25T10:41:46;63.87;;;61.27;;
20896;SDS011;10608;42.600;23.398;2023-04-25T10:44:13;43.30;;;41.57;;
20896;SDS011;10608;42.600;23.398;2023-04-25T10:46:38;27.73;;;26.63;;
20896;SDS011;10608;42.600;23.398;2023-04-25T10:49:03;24.67;;;23.67;;
20896;SDS011;10608;42.600;23.398;2023-04-25T10:51:29;30.97;;;29.77;;
20896;SDS011;10608;42.600;23.398;2023-04-25T10:56:26;18.73;;;18.03;;
20896;SDS011;10608;42.600;23.398;2023-04-25T10:58:51;17.90;;;17.20;;
20896;SDS011;10608;42.600;23.398;2023-04-25T11:01:20;28.10;;;27.00;;
20896;SDS011;10608;42.600;23.398;2023-04-25T11:03:46;68.57;;;65.83;;
20896;SDS011;10608;42.600;23.398;2023-04-25T11:06:19;38.87;;;37.30;;
20896;SDS011;10608;42.600;23.398;2023-04-25T11:08:51;27.03;;;25.97;;
20896;SDS011;10608;42.600;23.398;2023-04-25T11:11:17;15.97;;;15.37;;
20896;SDS011;10608;42.600;23.398;2023-04-25T11:13:43;8.13;;;7.83;;
20896;SDS011;10608;42.600;23.398;2023-04-25T11:16:08;15.13;;;14.53;;
20896;SDS011;10608;42.600;23.398;2023-04-25T11:18:33;22.43;;;21.53;;
20896;SDS011;10608;42.600;23.398;2023-04-25T11:20:59;29.13;;;27.93;;
20896;SDS011;10608;42.600;23.398;2023-04-25T11:23:25;23.90;;;22.97;;
20896;SDS011;10608;42.600;23.398;2023-04-25T11:25:51;16.13;;;15.50;;
20896;SDS011;10608;42.600;23.398;2023-04-25T11:28:20;16.70;;;16.03;;
20896;SDS011;10608;42.600;23.398;2023-04-25T11:30:47;24.37;;;23.17;;
20896;SDS011;10608;42.600;23.398;2023-04-25T11:33:13;24.90;;;23.90;;
20896;SDS011;10608;42.600;23.398;2023-04-25T11:35:40;21.83;;;20.97;;
20896;SDS011;10608;42.600;23.398;2023-04-25T11:38:05;26.83;;;25.63;;
20896;SDS011;10608;42.600;23.398;2023-04-25T11:40:30;24.63;;;23.63;;
20896;SDS011;10608;42.600;23.398;2023-04-25T11:42:56;19.93;;;19.13;;
20896;SDS011;10608;42.600;23.398;2023-04-25T11:45:24;14.23;;;13.63;;
20896;SDS011;10608;42.600;23.398;2023-04-25T11:47:50;30.43;;;29.03;;
20896;SDS011;10608;42.600;23.398;2023-04-25T11:50:15;27.20;;;26.10;;
20896;SDS011;10608;42.600;23.398;2023-04-25T11:52:45;31.07;;;29.77;;
20896;SDS011;10608;42.600;23.398;2023-04-25T11:55:17;32.20;;;30.90;;
20896;SDS011;10608;42.600;23.398;2023-04-25T11:57:43;27.90;;;26.73;;
20896;SDS011;10608;42.600;23.398;2023-04-25T12:00:18;11.80;;;11.30;;
20896;SDS011;10608;42.600;23.398;2023-04-25T12:02:54;13.27;;;12.77;;
20896;SDS011;10608;42.600;23.398;2023-04-25T12:05:20;13.10;;;12.60;;
20896;SDS011;10608;42.600;23.398;2023-04-25T12:07:48;16.13;;;15.53;;
20896;SDS011;10608;42.600;23.398;2023-04-25T12:10:14;18.73;;;18.03;;
20896;SDS011;10608;42.600;23.398;2023-04-25T12:12:44;20.17;;;19.37;;
20896;SDS011;10608;42.600;23.398;2023-04-25T12:15:16;16.63;;;15.93;;
20896;SDS011;10608;42.600;23.398;2023-04-25T12:17:45;19.63;;;18.83;;
20896;SDS011;10608;42.600;23.398;2023-04-25T12:20:20;20.47;;;19.67;;
20896;SDS011;10608;42.600;23.398;2023-04-25T12:22:48;29.77;;;28.57;;
20896;SDS011;10608;42.600;23.398;2023-04-25T12:28:11;21.07;;;20.27;;
20896;SDS011;10608;42.600;23.398;2023-04-25T12:33:17;37.10;;;35.60;;
20896;SDS011;10608;42.600;23.398;2023-04-25T12:35:42;35.30;;;33.83;;
20896;SDS011;10608;42.600;23.398;2023-04-25T12:38:07;24.03;;;23.03;;
20896;SDS011;10608;42.600;23.398;2023-04-25T12:40:33;26.43;;;25.37;;
20896;SDS011;10608;42.600;23.398;2023-04-25T12:42:58;27.73;;;26.53;;
20896;SDS011;10608;42.600;23.398;2023-04-25T12:45:23;23.67;;;22.77;;
20896;SDS011;10608;42.600;23.398;2023-04-25T12:47:49;25.50;;;24.50;;
20896;SDS011;10608;42.600;23.398;2023-04-25T12:50:14;26.63;;;25.53;;
20896;SDS011;10608;42.600;23.398;2023-04-25T12:52:39;23.00;;;21.73;;
20896;SDS011;10608;42.600;23.398;2023-04-25T12:55:05;22.23;;;21.33;;
20896;SDS011;10608;42.600;23.398;2023-04-25T12:57:30;25.07;;;24.07;;
20896;SDS011;10608;42.600;23.398;2023-04-25T12:59:55;27.63;;;26.53;;
20896;SDS011;10608;42.600;23.398;2023-04-25T13:02:21;27.93;;;26.83;;
20896;SDS011;10608;42.600;23.398;2023-04-25T13:04:46;32.90;;;31.60;;
20896;SDS011;10608;42.600;23.398;2023-04-25T13:07:11;29.77;;;28.47;;
20896;SDS011;10608;42.600;23.398;2023-04-25T13:09:37;33.00;;;31.70;;
20896;SDS011;10608;42.600;23.398;2023-04-25T13:12:02;21.27;;;20.47;;
20896;SDS011;10608;42.600;23.398;2023-04-25T13:14:27;18.37;;;17.63;;
20896;SDS011;10608;42.600;23.398;2023-04-25T13:16:53;20.23;;;19.43;;
20896;SDS011;10608;42.600;23.398;2023-04-25T13:19:19;33.43;;;32.07;;
20896;SDS011;10608;42.600;23.398;2023-04-25T13:21:44;33.10;;;31.80;;
20896;SDS011;10608;42.600;23.398;2023-04-25T13:24:10;16.97;;;16.27;;
20896;SDS011;10608;42.600;23.398;2023-04-25T13:26:35;18.73;;;18.00;;
20896;SDS011;10608;42.600;23.398;2023-04-25T13:29:00;23.43;;;22.53;;
20896;SDS011;10608;42.600;23.398;2023-04-25T13:31:28;21.67;;;20.80;;
20896;SDS011;10608;42.600;23.398;2023-04-25T13:33:53;21.83;;;20.93;;
20896;SDS011;10608;42.600;23.398;2023-04-25T13:36:19;14.80;;;14.20;;
20896;SDS011;10608;42.600;23.398;2023-04-25T13:38:44;18.50;;;17.80;;
20896;SDS011;10608;42.600;23.398;2023-04-25T13:41:12;19.37;;;18.60;;
20896;SDS011;10608;42.600;23.398;2023-04-25T13:43:42;28.40;;;27.23;;
20896;SDS011;10608;42.600;23.398;2023-04-25T13:46:07;17.43;;;16.73;;
20896;SDS011;10608;42.600;23.398;2023-04-25T13:48:33;20.10;;;19.30;;
20896;SDS011;10608;42.600;23.398;2023-04-25T13:50:58;14.77;;;14.17;;
20896;SDS011;10608;42.600;23.398;2023-04-25T13:53:23;18.67;;;17.97;;
20896;SDS011;10608;42.600;23.398;2023-04-25T13:55:48;29.27;;;28.07;;
20896;SDS011;10608;42.600;23.398;2023-04-25T13:58:14;34.40;;;33.00;;
20896;SDS011;10608;42.600;23.398;2023-04-25T14:00:39;17.53;;;16.83;;
20896;SDS011;10608;42.600;23.398;2023-04-25T14:03:07;23.33;;;22.43;;
20896;SDS011;10608;42.600;23.398;2023-04-25T14:05:32;35.60;;;34.17;;
20896;SDS011;10608;42.600;23.398;2023-04-25T14:07:59;57.40;;;54.83;;